createdAt,value
2019-05-09T00:00:33.563Z,11.08
2019-05-09T00:01:33.588Z,10.98
2019-05-09T00:02:33.731Z,10.99
2019-05-09T00:03:33.498Z,10.90
2019-05-09T00:04:33.486Z,10.91
2019-05-09T00:05:33.469Z,10.98
2019-05-09T00:06:34.013Z,10.87
2019-05-09T00:07:33.688Z,10.91
2019-05-09T00:08:33.544Z,10.95
2019-05-09T00:09:33.590Z,10.94
2019-05-09T00:10:39.291Z,10.99
2019-05-09T00:11:33.587Z,10.93
2019-05-09T00:12:33.559Z,11.01
2019-05-09T00:13:34.142Z,10.91
2019-05-09T00:14:34.221Z,10.88
2019-05-09T00:15:33.349Z,10.90
2019-05-09T00:16:33.503Z,11.02
2019-05-09T00:17:33.787Z,10.90
2019-05-09T00:18:33.617Z,10.90
2019-05-09T00:19:33.460Z,10.90
2019-05-09T00:20:33.208Z,10.87
2019-05-09T00:21:33.370Z,10.94
2019-05-09T00:22:33.296Z,10.94
2019-05-09T00:23:33.245Z,10.91
2019-05-09T00:24:33.317Z,10.88
2019-05-09T00:25:33.980Z,10.93
2019-05-09T00:26:33.917Z,10.94
2019-05-09T00:27:33.274Z,10.90
2019-05-09T00:28:35.905Z,10.90
2019-05-09T00:29:33.516Z,10.84
2019-05-09T00:30:33.240Z,10.94
2019-05-09T00:31:33.840Z,10.93
2019-05-09T00:32:34.073Z,10.94
2019-05-09T00:33:34.257Z,10.87
2019-05-09T00:34:33.811Z,11.01
2019-05-09T00:35:33.796Z,11.01
2019-05-09T00:36:33.509Z,11.02
2019-05-09T00:37:33.098Z,10.98
2019-05-09T00:38:33.400Z,10.91
2019-05-09T00:39:34.118Z,11.03
2019-05-09T00:40:34.124Z,10.98
2019-05-09T00:41:33.188Z,11.03
2019-05-09T00:42:33.433Z,10.88
2019-05-09T00:43:34.202Z,10.91
2019-05-09T00:44:33.902Z,10.94
2019-05-09T00:45:33.406Z,11.01
2019-05-09T00:46:34.121Z,10.87
2019-05-09T00:47:33.141Z,10.91
2019-05-09T00:48:33.805Z,10.91
2019-05-09T00:49:34.118Z,10.93
2019-05-09T00:50:34.133Z,10.93
2019-05-09T00:51:33.899Z,11.01
2019-05-09T00:52:33.947Z,10.91
2019-05-09T00:53:33.947Z,10.98
2019-05-09T00:54:33.600Z,10.86
2019-05-09T00:55:33.398Z,10.91
2019-05-09T00:56:33.304Z,10.94
2019-05-09T00:57:33.578Z,10.94
2019-05-09T00:58:33.541Z,11.02
2019-05-09T00:59:33.391Z,10.94
2019-05-09T01:00:33.397Z,10.90
2019-05-09T01:01:34.208Z,10.86
2019-05-09T01:02:34.050Z,10.88
2019-05-09T01:03:33.952Z,10.93
2019-05-09T01:04:33.414Z,10.87
2019-05-09T01:05:34.155Z,10.88
2019-05-09T01:06:34.040Z,10.87
2019-05-09T01:07:33.726Z,10.88
2019-05-09T01:08:33.638Z,10.83
2019-05-09T01:09:33.549Z,10.83
2019-05-09T01:10:34.228Z,10.81
2019-05-09T01:11:33.459Z,10.78
2019-05-09T01:12:34.136Z,10.73
2019-05-09T01:13:34.145Z,10.78
2019-05-09T01:14:33.973Z,10.84
2019-05-09T01:15:33.568Z,10.78
2019-05-09T01:16:33.646Z,10.72
2019-05-09T01:17:33.580Z,10.69
2019-05-09T01:18:33.311Z,10.81
2019-05-09T01:19:33.856Z,10.75
2019-05-09T01:20:33.413Z,10.70
2019-05-09T01:21:33.530Z,10.75
2019-05-09T01:22:33.366Z,10.78
2019-05-09T01:23:34.398Z,10.75
2019-05-09T01:24:33.945Z,10.68
2019-05-09T01:25:33.659Z,10.75
2019-05-09T01:26:33.574Z,10.68
2019-05-09T01:27:33.934Z,10.68
2019-05-09T01:28:34.029Z,10.75
2019-05-09T01:29:33.876Z,10.75
2019-05-09T01:30:33.750Z,10.78
2019-05-09T01:31:33.477Z,10.75
2019-05-09T01:32:34.286Z,10.72
2019-05-09T01:33:33.400Z,10.72
2019-05-09T01:34:33.413Z,10.70
2019-05-09T01:35:34.022Z,10.69
2019-05-09T01:36:33.898Z,10.66
2019-05-09T01:37:34.212Z,10.69
2019-05-09T01:38:34.035Z,10.65
2019-05-09T01:39:33.722Z,10.63
2019-05-09T01:40:33.447Z,10.65
2019-05-09T01:41:34.092Z,10.73
2019-05-09T01:42:33.804Z,10.62
2019-05-09T01:43:33.892Z,10.63
2019-05-09T01:44:33.675Z,10.65
2019-05-09T01:45:34.226Z,10.62
2019-05-09T01:46:34.063Z,10.70
2019-05-09T01:47:34.156Z,10.65
2019-05-09T01:48:34.093Z,10.73
2019-05-09T01:49:34.282Z,10.58
2019-05-09T01:50:34.008Z,10.63
2019-05-09T01:51:33.790Z,10.69
2019-05-09T01:52:33.813Z,10.69
2019-05-09T01:53:33.572Z,10.70
2019-05-09T01:54:33.518Z,10.60
2019-05-09T01:55:34.020Z,10.62
2019-05-09T01:56:33.957Z,10.63
2019-05-09T01:57:33.798Z,10.73
2019-05-09T01:58:34.441Z,10.63
2019-05-09T01:59:34.142Z,10.65
2019-05-09T02:00:33.561Z,10.66
2019-05-09T02:01:34.439Z,10.66
2019-05-09T02:02:33.905Z,10.70
2019-05-09T02:03:33.825Z,10.73
2019-05-09T02:04:33.646Z,10.65
2019-05-09T02:05:34.103Z,10.62
2019-05-09T02:06:33.587Z,10.58
2019-05-09T02:07:33.585Z,10.58
2019-05-09T02:08:34.491Z,10.62
2019-05-09T02:09:34.442Z,10.60
2019-05-09T02:10:34.701Z,10.66
2019-05-09T02:11:42.256Z,10.66
2019-05-09T02:12:33.929Z,10.58
2019-05-09T02:13:34.053Z,10.60
2019-05-09T02:14:34.379Z,10.62
2019-05-09T02:15:34.190Z,10.57
2019-05-09T02:16:33.863Z,10.57
2019-05-09T02:17:33.648Z,10.62
2019-05-09T02:18:33.677Z,10.57
2019-05-09T02:19:33.661Z,10.47
2019-05-09T02:20:33.670Z,10.44
2019-05-09T02:21:34.527Z,10.54
2019-05-09T02:22:34.594Z,10.52
2019-05-09T02:23:34.008Z,10.51
2019-05-09T02:24:33.914Z,10.49
2019-05-09T02:25:33.693Z,10.51
2019-05-09T02:26:33.696Z,10.47
2019-05-09T02:27:33.714Z,10.51
2019-05-09T02:28:34.248Z,10.44
2019-05-09T02:29:33.858Z,10.46
2019-05-09T02:30:36.014Z,10.35
2019-05-09T02:31:35.350Z,10.38
2019-05-09T02:32:34.679Z,10.38
2019-05-09T02:33:34.745Z,10.38
2019-05-09T02:34:35.685Z,10.36
2019-05-09T02:35:41.520Z,10.36
2019-05-09T02:36:33.751Z,10.36
2019-05-09T02:37:33.754Z,10.24
2019-05-09T02:38:33.780Z,10.26
2019-05-09T02:39:33.783Z,10.24
2019-05-09T02:40:33.777Z,10.24
2019-05-09T02:41:33.779Z,10.18
2019-05-09T02:42:33.789Z,10.20
2019-05-09T02:43:33.794Z,10.24
2019-05-09T02:44:33.788Z,10.29
2019-05-09T02:45:33.800Z,10.11
2019-05-09T02:46:33.804Z,10.22
2019-05-09T02:47:33.816Z,10.17
2019-05-09T02:48:33.825Z,10.16
2019-05-09T02:49:33.845Z,10.14
2019-05-09T02:50:33.823Z,10.20
2019-05-09T02:51:33.841Z,10.06
2019-05-09T02:52:33.835Z,10.06
2019-05-09T02:53:33.833Z,10.04
2019-05-09T02:54:33.846Z,9.96
2019-05-09T02:55:33.940Z,9.91
2019-05-09T02:56:33.860Z,9.93
2019-05-09T02:57:33.863Z,9.89
2019-05-09T02:58:33.859Z,9.89
2019-05-09T02:59:33.945Z,9.92
2019-05-09T03:00:33.874Z,9.92
2019-05-09T03:01:33.879Z,9.92
2019-05-09T03:02:33.880Z,9.85
2019-05-09T03:03:33.884Z,9.81
2019-05-09T03:04:33.897Z,9.85
2019-05-09T03:05:33.914Z,9.75
2019-05-09T03:06:33.904Z,9.81
2019-05-09T03:07:33.910Z,9.80
2019-05-09T03:08:33.910Z,9.80
2019-05-09T03:09:33.918Z,9.89
2019-05-09T03:10:33.926Z,9.85
2019-05-09T03:11:33.997Z,9.86
2019-05-09T03:12:35.702Z,9.75
2019-05-09T03:13:33.941Z,9.71
2019-05-09T03:14:33.943Z,9.78
2019-05-09T03:15:33.941Z,9.78
2019-05-09T03:16:33.961Z,9.74
2019-05-09T03:17:33.956Z,9.75
2019-05-09T03:18:33.968Z,9.75
2019-05-09T03:19:33.969Z,9.75
2019-05-09T03:20:33.965Z,9.78
2019-05-09T03:21:33.983Z,9.75
2019-05-09T03:22:33.988Z,9.78
2019-05-09T03:23:33.985Z,9.73
2019-05-09T03:24:33.992Z,9.77
2019-05-09T03:25:33.997Z,9.77
2019-05-09T03:26:34.004Z,9.71
2019-05-09T03:27:34.008Z,9.75
2019-05-09T03:28:34.014Z,9.73
2019-05-09T03:29:34.017Z,9.73
2019-05-09T03:30:34.015Z,9.68
2019-05-09T03:31:34.025Z,9.77
2019-05-09T03:32:34.034Z,9.75
2019-05-09T03:33:35.790Z,9.70
2019-05-09T03:34:34.036Z,9.71
2019-05-09T03:35:34.051Z,9.63
2019-05-09T03:36:34.040Z,9.71
2019-05-09T03:37:34.100Z,9.77
2019-05-09T03:38:34.172Z,9.75
2019-05-09T03:39:34.220Z,9.71
2019-05-09T03:40:34.067Z,9.71
2019-05-09T03:41:34.100Z,9.65
2019-05-09T03:42:43.001Z,9.68
2019-05-09T03:43:34.255Z,9.73
2019-05-09T03:44:34.286Z,9.68
2019-05-09T03:45:34.092Z,9.68
2019-05-09T03:46:34.099Z,9.71
2019-05-09T03:47:34.108Z,9.67
2019-05-09T03:48:34.111Z,9.63
2019-05-09T03:49:34.122Z,9.65
2019-05-09T03:50:34.118Z,9.62
2019-05-09T03:51:34.121Z,9.68
2019-05-09T03:52:34.122Z,9.62
2019-05-09T03:53:34.131Z,9.56
2019-05-09T03:54:34.138Z,9.62
2019-05-09T03:55:34.141Z,9.70
2019-05-09T03:56:34.147Z,9.65
2019-05-09T03:57:34.147Z,9.56
2019-05-09T03:58:34.157Z,9.59
2019-05-09T03:59:34.163Z,9.62
2019-05-09T04:00:34.204Z,9.56
2019-05-09T04:01:34.179Z,9.58
2019-05-09T04:02:34.180Z,9.59
2019-05-09T04:03:34.184Z,9.59
2019-05-09T04:04:34.764Z,9.56
2019-05-09T04:05:34.185Z,9.62
2019-05-09T04:06:34.212Z,9.60
2019-05-09T04:07:34.210Z,9.63
2019-05-09T04:08:34.211Z,9.55
2019-05-09T04:09:34.208Z,9.52
2019-05-09T04:10:34.213Z,9.55
2019-05-09T04:11:34.221Z,9.55
2019-05-09T04:12:34.227Z,9.59
2019-05-09T04:13:34.227Z,9.52
2019-05-09T04:14:34.240Z,9.53
2019-05-09T04:15:34.256Z,9.56
2019-05-09T04:16:34.256Z,9.49
2019-05-09T04:17:34.240Z,9.56
2019-05-09T04:18:34.250Z,9.49
2019-05-09T04:19:34.261Z,9.49
2019-05-09T04:20:34.256Z,9.49
2019-05-09T04:21:34.269Z,9.52
2019-05-09T04:22:34.277Z,9.56
2019-05-09T04:23:34.276Z,9.53
2019-05-09T04:24:34.288Z,9.45
2019-05-09T04:25:34.293Z,9.49
2019-05-09T04:26:34.285Z,9.48
2019-05-09T04:27:34.310Z,9.50
2019-05-09T04:28:34.301Z,9.49
2019-05-09T04:29:34.323Z,9.48
2019-05-09T04:30:34.310Z,9.48
2019-05-09T04:31:34.320Z,9.41
2019-05-09T04:32:34.333Z,9.52
2019-05-09T04:33:34.328Z,9.52
2019-05-09T04:34:34.334Z,9.55
2019-05-09T04:35:34.342Z,9.49
2019-05-09T04:36:34.345Z,9.49
2019-05-09T04:37:34.352Z,9.49
2019-05-09T04:38:34.357Z,9.38
2019-05-09T04:39:34.364Z,9.35
2019-05-09T04:40:37.669Z,9.45
2019-05-09T04:41:34.370Z,9.40
2019-05-09T04:42:35.095Z,9.50
2019-05-09T04:43:36.811Z,9.48
2019-05-09T04:44:34.390Z,9.50
2019-05-09T04:45:38.790Z,9.58
2019-05-09T04:46:34.397Z,9.56
2019-05-09T04:47:41.376Z,9.56
2019-05-09T04:48:34.443Z,9.58
2019-05-09T04:49:39.649Z,9.60
2019-05-09T04:50:34.410Z,9.60
2019-05-09T04:51:34.426Z,9.71
2019-05-09T04:52:34.422Z,9.60
2019-05-09T04:53:34.435Z,9.67
2019-05-09T04:54:34.443Z,9.67
2019-05-09T04:55:34.447Z,9.60
2019-05-09T04:56:34.447Z,9.65
2019-05-09T04:57:34.464Z,9.73
2019-05-09T04:58:34.478Z,9.74
2019-05-09T04:59:34.468Z,9.77
2019-05-09T05:00:34.468Z,9.75
2019-05-09T05:01:34.473Z,9.81
2019-05-09T05:02:34.473Z,9.81
2019-05-09T05:03:34.481Z,9.83
2019-05-09T05:04:34.493Z,9.92
2019-05-09T05:05:34.499Z,9.85
2019-05-09T05:06:34.501Z,9.89
2019-05-09T05:07:34.505Z,9.92
2019-05-09T05:08:34.513Z,9.93
2019-05-09T05:09:34.519Z,9.96
2019-05-09T05:10:34.522Z,9.92
2019-05-09T05:11:34.521Z,10.06
2019-05-09T05:12:34.536Z,10.04
2019-05-09T05:13:34.554Z,10.04
2019-05-09T05:14:34.549Z,10.02
2019-05-09T05:15:34.556Z,10.04
2019-05-09T05:16:34.563Z,10.11
2019-05-09T05:17:34.557Z,10.06
2019-05-09T05:18:34.574Z,10.06
2019-05-09T05:19:37.665Z,10.14
2019-05-09T05:20:34.582Z,10.02
2019-05-09T05:21:34.582Z,10.11
2019-05-09T05:22:34.589Z,10.14
2019-05-09T05:23:34.597Z,10.11
2019-05-09T05:24:34.603Z,10.16
2019-05-09T05:25:34.617Z,10.18
2019-05-09T05:26:34.613Z,10.18
2019-05-09T05:27:34.624Z,10.13
2019-05-09T05:28:34.624Z,10.18
2019-05-09T05:29:34.648Z,10.22
2019-05-09T05:30:34.642Z,10.22
2019-05-09T05:31:34.641Z,10.24
2019-05-09T05:32:34.645Z,10.24
2019-05-09T05:33:34.655Z,10.25
2019-05-09T05:34:34.666Z,10.26
2019-05-09T05:35:34.667Z,10.25
2019-05-09T05:36:34.687Z,10.24
2019-05-09T05:37:34.676Z,10.26
2019-05-09T05:38:34.687Z,10.42
2019-05-09T05:39:34.696Z,10.42
2019-05-09T05:40:34.693Z,10.55
2019-05-09T05:41:34.699Z,10.52
2019-05-09T05:42:34.724Z,10.44
2019-05-09T05:43:41.512Z,10.55
2019-05-09T05:44:34.713Z,10.58
2019-05-09T05:45:34.732Z,10.57
2019-05-09T05:46:34.743Z,10.70
2019-05-09T05:47:34.737Z,10.63
2019-05-09T05:48:34.742Z,10.72
2019-05-09T05:49:34.769Z,10.78
2019-05-09T05:50:34.753Z,10.75
2019-05-09T05:51:34.758Z,10.78
2019-05-09T05:52:34.767Z,10.78
2019-05-09T05:53:34.778Z,10.84
2019-05-09T05:54:34.780Z,10.90
2019-05-09T05:55:34.782Z,10.83
2019-05-09T05:56:34.800Z,10.87
2019-05-09T05:57:34.806Z,10.80
2019-05-09T05:58:34.798Z,10.90
2019-05-09T05:59:39.145Z,10.90
2019-05-09T06:00:34.819Z,10.83
2019-05-09T06:01:34.825Z,10.81
2019-05-09T06:02:34.827Z,10.84
2019-05-09T06:03:34.835Z,10.83
2019-05-09T06:04:34.850Z,10.84
2019-05-09T06:05:34.851Z,10.87
2019-05-09T06:06:37.340Z,10.84
2019-05-09T06:07:34.866Z,10.91
2019-05-09T06:08:34.876Z,10.88
2019-05-09T06:09:34.885Z,10.99
2019-05-09T06:10:34.896Z,10.94
2019-05-09T06:11:34.895Z,10.99
2019-05-09T06:12:34.923Z,11.02
2019-05-09T06:13:34.918Z,11.01
2019-05-09T06:14:34.935Z,11.06
2019-05-09T06:15:34.943Z,11.06
2019-05-09T06:16:37.552Z,11.12
2019-05-09T06:17:34.959Z,11.03
2019-05-09T06:18:34.973Z,11.08
2019-05-09T06:19:37.630Z,11.17
2019-05-09T06:20:34.987Z,11.16
2019-05-09T06:21:34.994Z,11.27
2019-05-09T06:22:35.022Z,11.31
2019-05-09T06:23:37.305Z,11.53
2019-05-09T06:24:35.024Z,11.51
2019-05-09T06:25:35.043Z,11.48
2019-05-09T06:26:37.237Z,11.49
2019-05-09T06:27:35.062Z,11.51
2019-05-09T06:28:35.068Z,11.66
2019-05-09T06:29:35.080Z,11.63
2019-05-09T06:30:40.902Z,11.59
2019-05-09T06:31:35.105Z,11.64
2019-05-09T06:32:35.135Z,11.75
2019-05-09T06:33:35.305Z,11.69
2019-05-09T06:34:38.487Z,11.72
2019-05-09T06:35:37.761Z,11.70
2019-05-09T06:36:38.617Z,11.75
2019-05-09T06:37:35.180Z,11.90
2019-05-09T06:38:37.591Z,11.81
2019-05-09T06:39:37.175Z,11.88
2019-05-09T06:40:35.213Z,11.75
2019-05-09T06:41:37.799Z,11.88
2019-05-09T06:42:37.848Z,11.82
2019-05-09T06:43:35.251Z,11.90
2019-05-09T06:44:37.329Z,12.03
2019-05-09T06:45:39.140Z,12.15
2019-05-09T06:46:37.699Z,12.22
2019-05-09T06:47:35.291Z,12.19
2019-05-09T06:48:37.621Z,12.15
2019-05-09T06:49:37.540Z,12.25
2019-05-09T06:50:35.328Z,12.40
2019-05-09T06:51:35.394Z,12.43
2019-05-09T06:52:37.443Z,12.37
2019-05-09T06:53:35.353Z,12.38
2019-05-09T06:54:35.369Z,12.48
2019-05-09T06:55:35.385Z,12.67
2019-05-09T06:56:35.408Z,12.58
2019-05-09T06:57:38.984Z,12.43
2019-05-09T06:58:35.429Z,12.49
2019-05-09T06:59:35.447Z,12.52
2019-05-09T07:00:37.750Z,12.54
2019-05-09T07:01:37.497Z,12.66
2019-05-09T07:02:35.480Z,12.79
2019-05-09T07:03:37.427Z,12.87
2019-05-09T07:04:37.852Z,12.95
2019-05-09T07:05:35.545Z,12.89
2019-05-09T07:06:38.076Z,12.87
2019-05-09T07:07:37.404Z,12.73
2019-05-09T07:08:37.927Z,12.77
2019-05-09T07:09:35.579Z,12.76
2019-05-09T07:10:37.640Z,12.88
2019-05-09T07:11:37.966Z,12.98
2019-05-09T07:12:37.888Z,13.07
2019-05-09T07:13:35.644Z,13.06
2019-05-09T07:14:39.122Z,13.13
2019-05-09T07:15:37.547Z,13.12
2019-05-09T07:16:37.635Z,13.21
2019-05-09T07:17:38.540Z,13.32
2019-05-09T07:18:35.693Z,13.48
2019-05-09T07:19:38.023Z,13.44
2019-05-09T07:20:37.825Z,13.57
2019-05-09T07:21:37.571Z,13.63
2019-05-09T07:22:35.769Z,13.66
2019-05-09T07:23:37.309Z,13.65
2019-05-09T07:24:37.729Z,13.53
2019-05-09T07:25:37.739Z,13.43
2019-05-09T07:26:37.371Z,13.43
2019-05-09T07:27:35.814Z,13.50
2019-05-09T07:28:37.642Z,13.76
2019-05-09T07:29:37.599Z,13.84
2019-05-09T07:30:37.619Z,13.68
2019-05-09T07:31:37.922Z,13.73
2019-05-09T07:32:38.117Z,13.98
2019-05-09T07:33:38.225Z,14.12
2019-05-09T07:34:38.153Z,14.08
2019-05-09T07:35:38.008Z,13.98
2019-05-09T07:36:37.760Z,14.08
2019-05-09T07:37:37.917Z,14.11
2019-05-09T07:38:38.317Z,14.19
2019-05-09T07:39:37.929Z,14.27
2019-05-09T07:40:38.312Z,14.41
2019-05-09T07:41:38.224Z,14.21
2019-05-09T07:42:36.017Z,14.38
2019-05-09T07:43:38.318Z,14.54
2019-05-09T07:44:46.293Z,14.57
2019-05-09T07:45:38.189Z,14.56
2019-05-09T07:46:38.337Z,14.60
2019-05-09T07:47:36.096Z,14.63
2019-05-09T07:48:38.064Z,14.27
2019-05-09T07:49:37.707Z,14.19
2019-05-09T07:50:38.666Z,14.19
2019-05-09T07:51:37.319Z,14.19
2019-05-09T07:52:38.563Z,14.11
2019-05-09T07:53:37.990Z,13.99
2019-05-09T07:54:37.673Z,14.08
2019-05-09T07:55:37.912Z,14.06
2019-05-09T07:56:37.873Z,14.13
2019-05-09T07:57:44.863Z,14.16
2019-05-09T07:58:37.765Z,14.31
2019-05-09T07:59:36.274Z,14.27
2019-05-09T08:00:38.461Z,14.19
2019-05-09T08:01:38.452Z,14.05
2019-05-09T08:02:38.592Z,14.17
2019-05-09T08:03:38.456Z,14.20
2019-05-09T08:04:38.499Z,14.20
2019-05-09T08:05:38.348Z,14.21
2019-05-09T08:06:38.026Z,14.39
2019-05-09T08:07:38.070Z,14.41
2019-05-09T08:08:38.463Z,14.57
2019-05-09T08:09:38.814Z,14.63
2019-05-09T08:10:38.417Z,14.66
2019-05-09T08:11:37.694Z,14.83
2019-05-09T08:12:38.701Z,14.82
2019-05-09T08:13:38.602Z,14.83
2019-05-09T08:14:37.788Z,14.94
2019-05-09T08:15:38.368Z,15.18
2019-05-09T08:16:37.912Z,15.07
2019-05-09T08:17:38.223Z,14.97
2019-05-09T08:18:37.576Z,14.95
2019-05-09T08:19:38.001Z,15.00
2019-05-09T08:20:40.493Z,15.11
2019-05-09T08:21:38.350Z,15.19
2019-05-09T08:22:40.828Z,15.19
2019-05-09T08:23:37.997Z,15.55
2019-05-09T08:24:38.053Z,15.59
2019-05-09T08:25:38.234Z,15.43
2019-05-09T08:26:36.579Z,15.38
2019-05-09T08:27:37.944Z,15.31
2019-05-09T08:28:39.013Z,15.23
2019-05-09T08:29:38.747Z,15.25
2019-05-09T08:30:39.934Z,15.18
2019-05-09T08:31:40.107Z,15.19
2019-05-09T08:32:37.713Z,15.11
2019-05-09T08:33:38.077Z,15.12
2019-05-09T08:34:37.773Z,15.12
2019-05-09T08:35:38.287Z,15.04
2019-05-09T08:36:38.449Z,15.04
2019-05-09T08:37:38.964Z,15.04
2019-05-09T08:38:39.040Z,15.28
2019-05-09T08:39:38.285Z,15.55
2019-05-09T08:40:38.133Z,15.49
2019-05-09T08:41:38.468Z,15.15
2019-05-09T08:42:37.782Z,15.30
2019-05-09T08:43:37.693Z,15.43
2019-05-09T08:45:38.316Z,15.67
2019-05-09T08:46:37.713Z,15.73
2019-05-09T08:47:38.102Z,15.95
2019-05-09T08:48:37.803Z,16.14
2019-05-09T08:49:37.412Z,16.03
2019-05-09T08:50:38.972Z,15.95
2019-05-09T08:51:50.835Z,16.01
2019-05-09T08:52:37.650Z,16.36
2019-05-09T08:53:38.100Z,16.47
2019-05-09T08:54:38.037Z,16.66
2019-05-09T08:55:38.313Z,16.37
2019-05-09T08:56:38.749Z,15.92
2019-05-09T08:57:37.604Z,15.95
2019-05-09T08:58:38.180Z,16.03
2019-05-09T08:59:38.289Z,16.32
2019-05-09T09:02:04.377Z,16.36
2019-05-09T09:02:37.670Z,16.34
2019-05-09T09:03:37.725Z,16.42
2019-05-09T09:04:38.404Z,16.67
2019-05-09T09:05:38.140Z,16.77
2019-05-09T09:06:37.952Z,16.85
2019-05-09T09:07:37.940Z,16.95
2019-05-09T09:08:38.030Z,16.78
2019-05-09T09:09:37.899Z,16.82
2019-05-09T09:10:38.584Z,17.20
2019-05-09T09:11:38.512Z,17.17
2019-05-09T09:12:38.446Z,17.30
2019-05-09T09:13:37.855Z,17.58
2019-05-09T09:14:38.446Z,17.55
2019-05-09T09:16:02.379Z,17.74
2019-05-09T09:16:37.901Z,18.07
2019-05-09T09:17:38.578Z,18.20
2019-05-09T09:18:38.816Z,18.11
2019-05-09T09:19:38.618Z,18.17
2019-05-09T09:20:38.024Z,17.74
2019-05-09T09:21:38.799Z,17.86
2019-05-09T09:22:37.671Z,17.89
2019-05-09T09:23:44.106Z,17.33
2019-05-09T09:24:37.633Z,17.46
2019-05-09T09:25:39.152Z,17.58
2019-05-09T09:26:38.196Z,17.49
2019-05-09T09:27:38.021Z,17.12
2019-05-09T09:28:38.096Z,17.14
2019-05-09T09:29:38.098Z,17.38
2019-05-09T09:30:38.501Z,17.86
2019-05-09T09:31:37.896Z,17.70
2019-05-09T09:32:38.752Z,17.15
2019-05-09T09:33:37.823Z,17.17
2019-05-09T09:34:37.898Z,17.28
2019-05-09T09:35:38.300Z,17.20
2019-05-09T09:36:39.110Z,17.06
2019-05-09T09:37:47.863Z,17.17
2019-05-09T09:38:37.711Z,16.81
2019-05-09T09:39:44.325Z,16.51
2019-05-09T09:40:38.500Z,16.45
2019-05-09T09:41:38.702Z,16.59
2019-05-09T09:42:39.727Z,16.65
2019-05-09T09:43:38.311Z,16.81
2019-05-09T09:44:39.386Z,16.72
2019-05-09T09:45:38.029Z,16.63
2019-05-09T09:46:37.702Z,16.62
2019-05-09T09:47:39.579Z,16.92
2019-05-09T09:48:38.826Z,17.10
2019-05-09T09:49:38.361Z,17.18
2019-05-09T09:50:38.387Z,17.07
2019-05-09T09:51:38.385Z,16.91
2019-05-09T09:52:38.465Z,17.02
2019-05-09T09:53:38.569Z,17.06
2019-05-09T09:54:38.625Z,17.17
2019-05-09T09:55:38.646Z,17.43
2019-05-09T09:56:38.579Z,17.80
2019-05-09T09:57:37.902Z,18.25
2019-05-09T09:58:38.080Z,18.39
2019-05-09T09:59:40.820Z,18.16
2019-05-09T10:00:38.254Z,18.74
2019-05-09T10:01:38.514Z,19.70
2019-05-09T10:02:38.014Z,20.23
2019-05-09T10:03:37.907Z,20.23
2019-05-09T10:04:37.919Z,20.02
2019-05-09T10:05:38.142Z,19.78
2019-05-09T10:06:38.829Z,19.86
2019-05-09T10:07:38.520Z,19.80
2019-05-09T10:08:39.587Z,19.58
2019-05-09T10:09:38.009Z,19.43
2019-05-09T10:10:38.028Z,19.49
2019-05-09T10:11:38.046Z,19.68
2019-05-09T10:12:44.306Z,19.58
2019-05-09T10:13:38.059Z,19.55
2019-05-09T10:14:38.068Z,19.38
2019-05-09T10:15:38.474Z,19.24
2019-05-09T10:16:39.001Z,18.69
2019-05-09T10:17:38.690Z,18.35
2019-05-09T10:18:38.310Z,18.09
2019-05-09T10:19:38.463Z,17.98
2019-05-09T10:20:38.599Z,17.83
2019-05-09T10:21:38.319Z,17.42
2019-05-09T10:22:46.002Z,17.00
2019-05-09T10:23:38.193Z,16.96
2019-05-09T10:24:38.205Z,16.85
2019-05-09T10:25:38.438Z,16.84
2019-05-09T10:26:39.026Z,16.73
2019-05-09T10:27:38.785Z,16.65
2019-05-09T10:28:38.268Z,16.65
2019-05-09T10:29:38.763Z,16.67
2019-05-09T10:30:38.518Z,16.65
2019-05-09T10:31:39.243Z,16.50
2019-05-09T10:32:38.505Z,16.63
2019-05-09T10:33:38.317Z,16.50
2019-05-09T10:34:38.385Z,16.48
2019-05-09T10:35:39.219Z,16.63
2019-05-09T10:36:38.568Z,16.48
2019-05-09T10:37:39.320Z,16.54
2019-05-09T10:38:38.809Z,16.63
2019-05-09T10:39:38.385Z,16.91
2019-05-09T10:40:40.061Z,17.09
2019-05-09T10:41:38.391Z,17.24
2019-05-09T10:42:38.416Z,17.12
2019-05-09T10:43:39.128Z,17.00
2019-05-09T10:44:38.445Z,16.90
2019-05-09T10:45:40.844Z,16.90
2019-05-09T10:46:51.466Z,16.82
2019-05-09T10:47:38.463Z,16.92
2019-05-09T10:48:38.672Z,17.00
2019-05-09T10:49:38.499Z,16.91
2019-05-09T10:50:44.749Z,17.10
2019-05-09T10:51:38.522Z,17.12
2019-05-09T10:52:38.550Z,17.09
2019-05-09T10:53:38.535Z,17.00
2019-05-09T10:54:38.548Z,17.39
2019-05-09T10:55:38.774Z,17.87
2019-05-09T10:56:38.683Z,17.74
2019-05-09T10:58:38.588Z,17.65
2019-05-09T10:59:38.622Z,17.36
2019-05-09T11:00:39.614Z,17.36
2019-05-09T11:01:38.730Z,17.35
2019-05-09T11:02:38.631Z,17.38
2019-05-09T11:03:38.644Z,18.41
2019-05-09T11:04:42.075Z,19.40
2019-05-09T11:05:38.683Z,20.38
2019-05-09T11:06:38.700Z,21.55
2019-05-09T11:07:38.694Z,21.66
2019-05-09T11:08:38.700Z,21.49
2019-05-09T11:09:39.092Z,21.83
2019-05-09T11:11:38.934Z,20.46
2019-05-09T11:12:38.765Z,19.97
2019-05-09T11:13:39.081Z,20.44
2019-05-09T11:14:38.798Z,21.01
2019-05-09T11:15:38.854Z,21.56
2019-05-09T11:16:45.848Z,21.08
2019-05-09T11:17:39.031Z,21.01
2019-05-09T11:18:38.851Z,20.53
2019-05-09T11:19:38.860Z,19.50
2019-05-09T11:20:38.885Z,18.74
2019-05-09T11:21:39.374Z,18.47
2019-05-09T11:22:38.923Z,18.54
2019-05-09T11:23:39.383Z,18.59
2019-05-09T11:24:46.112Z,18.51
2019-05-09T11:25:38.995Z,18.34
2019-05-09T11:26:39.826Z,18.29
2019-05-09T11:27:39.016Z,18.35
2019-05-09T11:28:38.988Z,18.66
2019-05-09T11:29:39.008Z,18.44
2019-05-09T11:30:39.020Z,18.44
2019-05-09T11:32:39.048Z,20.05
2019-05-09T11:33:39.052Z,20.76
2019-05-09T11:34:39.072Z,21.03
2019-05-09T11:35:39.184Z,20.42
2019-05-09T11:36:39.220Z,20.13
2019-05-09T11:37:39.161Z,20.15
2019-05-09T11:38:43.625Z,20.27
2019-05-09T11:39:42.184Z,20.30
2019-05-09T11:40:39.146Z,20.27
2019-05-09T11:41:39.209Z,20.31
2019-05-09T11:42:39.182Z,20.34
2019-05-09T11:43:39.193Z,20.31
2019-05-09T11:44:39.203Z,19.86
2019-05-09T11:45:39.220Z,19.61
2019-05-09T11:46:39.239Z,19.53
2019-05-09T11:47:45.936Z,19.23
2019-05-09T11:48:39.264Z,18.97
2019-05-09T11:49:39.351Z,19.13
2019-05-09T11:50:39.294Z,19.45
2019-05-09T11:51:39.320Z,19.57
2019-05-09T11:52:39.397Z,18.66
2019-05-09T11:53:40.186Z,18.26
2019-05-09T11:54:39.331Z,17.99
2019-05-09T11:55:43.051Z,18.25
2019-05-09T11:56:39.353Z,18.53
2019-05-09T11:57:39.378Z,19.30
2019-05-09T11:58:39.390Z,19.61
2019-05-09T11:59:39.401Z,19.43
2019-05-09T12:00:39.414Z,19.42
2019-05-09T12:01:39.943Z,19.27
2019-05-09T12:03:39.446Z,18.68
2019-05-09T12:04:39.467Z,18.25
2019-05-09T12:05:39.469Z,17.86
2019-05-09T12:06:39.483Z,17.84
2019-05-09T12:07:39.490Z,17.87
2019-05-09T12:08:39.503Z,17.87
2019-05-09T12:09:39.528Z,17.74
2019-05-09T12:10:39.548Z,17.57
2019-05-09T12:11:44.254Z,17.65
2019-05-09T12:12:39.559Z,17.89
2019-05-09T12:13:39.565Z,17.86
2019-05-09T12:14:39.574Z,17.58
2019-05-09T12:15:39.588Z,17.65
2019-05-09T12:16:39.596Z,17.83
2019-05-09T12:17:51.071Z,17.99
2019-05-09T12:18:39.629Z,18.29
2019-05-09T12:19:39.621Z,18.44
2019-05-09T12:20:39.642Z,18.07
2019-05-09T12:21:47.434Z,17.89
2019-05-09T12:22:39.665Z,17.83
2019-05-09T12:23:39.681Z,17.99
2019-05-09T12:24:39.793Z,18.19
2019-05-09T12:25:39.693Z,18.23
2019-05-09T12:26:39.713Z,18.32
2019-05-09T12:27:39.725Z,18.36
2019-05-09T12:28:39.729Z,18.56
2019-05-09T12:29:39.769Z,18.75
2019-05-09T12:30:39.761Z,19.10
2019-05-09T12:31:39.775Z,19.67
2019-05-09T12:32:39.786Z,20.31
2019-05-09T12:33:39.792Z,20.51
2019-05-09T12:34:39.937Z,20.25
2019-05-09T12:35:39.837Z,20.02
2019-05-09T12:36:40.120Z,19.53
2019-05-09T12:37:39.846Z,19.38
2019-05-09T12:38:39.854Z,19.27
2019-05-09T12:39:39.869Z,19.09
2019-05-09T12:40:39.881Z,18.56
2019-05-09T12:41:39.912Z,18.42
2019-05-09T12:42:39.999Z,18.26
2019-05-09T12:43:39.939Z,18.26
2019-05-09T12:44:39.946Z,18.44
2019-05-09T12:45:39.958Z,18.51
2019-05-09T12:46:39.965Z,18.83
2019-05-09T12:47:40.031Z,19.24
2019-05-09T12:48:39.986Z,19.53
2019-05-09T12:49:40.000Z,19.47
2019-05-09T12:50:40.008Z,19.61
2019-05-09T12:51:40.021Z,19.34
2019-05-09T12:52:40.038Z,19.17
2019-05-09T12:53:40.046Z,19.01
2019-05-09T12:54:40.055Z,18.66
2019-05-09T12:55:40.076Z,18.71
2019-05-09T12:56:40.192Z,18.76
2019-05-09T12:57:40.091Z,19.02
2019-05-09T12:58:40.099Z,19.24
2019-05-09T12:59:48.989Z,19.30
2019-05-09T13:00:40.127Z,19.53
2019-05-09T13:01:41.331Z,19.71
2019-05-09T13:02:40.154Z,19.32
2019-05-09T13:03:40.166Z,19.09